Time;durP1;ratioP1;P1;durP2;ratioP2;P2;SDS_P1;SDS_P2;PMS_P1;PMS_P2;Temp;Humidity;BMP_temperature;BMP_pressure;BME280_temperature;BME280_humidity;BME280_pressure;Samples;Min_cycle;Max_cycle;Signal;HPM_P1;HPM_P2
2021/01/23 00:01:42;;;;;;;1.60;1.23;;;5.60;99.90;;;;;;5083293;28;20103;-65
2021/01/23 00:04:08;;;;;;;3.10;1.35;;;5.80;99.90;;;;;;5072342;28;20159;-65
2021/01/23 00:06:33;;;;;;;3.60;1.05;;;5.90;99.90;;;;;;5083358;28;20551;-65
2021/01/23 00:08:59;;;;;;;1.45;1.30;;;5.70;99.90;;;;;;5072427;28;20516;-66
2021/01/23 00:11:25;;;;;;;2.50;1.00;;;5.80;99.90;;;;;;5083347;28;20043;-65
2021/01/23 00:13:50;;;;;;;1.45;1.10;;;5.80;99.90;;;;;;5072134;28;20157;-65
2021/01/23 00:16:16;;;;;;;2.60;1.13;;;5.70;99.90;;;;;;5083508;28;20040;-65
2021/01/23 00:18:41;;;;;;;2.85;0.82;;;5.70;99.90;;;;;;5084446;28;20383;-66
2021/01/23 00:21:07;;;;;;;4.93;0.90;;;5.60;99.90;;;;;;5085408;28;20036;-65
2021/01/23 00:23:33;;;;;;;2.85;1.27;;;5.80;99.90;;;;;;5072425;28;20028;-65
2021/01/23 00:25:58;;;;;;;3.67;1.55;;;5.80;99.90;;;;;;5063402;28;20465;-65
2021/01/23 00:28:24;;;;;;;3.90;1.40;;;5.70;99.90;;;;;;5073513;28;20036;-65
2021/01/23 00:30:50;;;;;;;4.00;1.40;;;5.60;99.90;;;;;;5080234;28;20035;-65
2021/01/23 00:33:16;;;;;;;3.30;1.30;;;5.60;99.90;;;;;;5074397;28;20082;-65
2021/01/23 00:35:42;;;;;;;4.88;1.45;;;5.70;99.90;;;;;;5078938;28;20611;-65
2021/01/23 00:38:08;;;;;;;3.33;1.35;;;5.60;99.90;;;;;;5075488;28;20024;-65
2021/01/23 00:40:34;;;;;;;2.53;0.80;;;5.70;99.90;;;;;;5077987;28;20507;-65
2021/01/23 00:42:59;;;;;;;1.20;0.95;;;5.70;99.90;;;;;;5076599;28;20021;-65
2021/01/23 00:45:25;;;;;;;4.63;1.35;;;5.70;99.90;;;;;;5076287;28;20057;-65
2021/01/23 00:47:50;;;;;;;7.45;0.95;;;5.80;99.90;;;;;;5077803;28;20021;-66
2021/01/23 00:50:16;;;;;;;1.85;0.95;;;5.80;99.90;;;;;;5075074;28;20040;-65
2021/01/23 00:52:42;;;;;;;1.45;1.08;;;5.90;99.90;;;;;;5078933;28;20028;-65
2021/01/23 00:55:08;;;;;;;3.25;0.90;;;5.70;99.90;;;;;;5074049;28;20032;-65
2021/01/23 00:57:34;;;;;;;1.27;0.70;;;5.70;99.90;;;;;;5080056;28;20062;-65
2021/01/23 00:59:59;;;;;;;1.00;0.77;;;5.70;99.90;;;;;;5073659;28;20037;-65
2021/01/23 01:02:25;;;;;;;1.27;0.98;;;5.50;99.90;;;;;;5081513;28;20469;-65
2021/01/23 01:04:50;;;;;;;4.20;0.90;;;5.50;99.90;;;;;;5073521;28;20024;-65
2021/01/23 01:07:16;;;;;;;1.13;0.90;;;5.40;99.90;;;;;;5079896;28;20020;-65
2021/01/23 01:09:42;;;;;;;1.38;0.80;;;5.40;99.90;;;;;;5073742;28;20028;-66
2021/01/23 01:12:07;;;;;;;1.02;0.55;;;5.50;99.90;;;;;;5079902;28;20365;-65
2021/01/23 01:14:33;;;;;;;1.73;0.65;;;5.60;99.90;;;;;;5073169;28;20035;-65
2021/01/23 01:16:59;;;;;;;2.22;0.70;;;5.50;99.90;;;;;;5079882;28;20563;-65
2021/01/23 01:19:24;;;;;;;0.90;0.40;;;5.40;99.90;;;;;;5086882;28;20047;-66
2021/01/23 01:21:50;;;;;;;2.10;0.50;;;5.50;99.90;;;;;;5081339;28;20029;-65
2021/01/23 01:24:15;;;;;;;2.25;0.70;;;5.40;99.90;;;;;;5070582;28;20070;-65
2021/01/23 01:26:41;;;;;;;4.15;1.02;;;5.40;99.90;;;;;;5069204;28;20079;-65
2021/01/23 01:29:07;;;;;;;3.25;0.70;;;5.40;99.90;;;;;;5070612;28;20033;-66
2021/01/23 01:31:32;;;;;;;2.70;0.70;;;5.50;99.90;;;;;;5081992;28;20078;-65
2021/01/23 01:33:58;;;;;;;2.38;0.70;;;5.40;99.90;;;;;;5070478;28;20074;-65
2021/01/23 01:36:24;;;;;;;1.92;0.88;;;5.50;99.90;;;;;;5081899;28;20632;-65
2021/01/23 01:38:49;;;;;;;2.92;0.88;;;5.50;99.90;;;;;;5070572;28;20047;-65
2021/01/23 01:41:15;;;;;;;1.48;0.60;;;5.60;99.90;;;;;;5081935;28;20059;-65
2021/01/23 01:43:43;;;;;;;1.60;0.90;;;5.50;99.90;;;;;;5070443;28;20028;-65
2021/01/23 01:46:10;;;;;;;2.53;0.77;;;5.40;99.90;;;;;;5081025;28;20086;-65
2021/01/23 01:48:36;;;;;;;2.72;0.98;;;5.50;99.90;;;;;;5068998;28;20021;-65
2021/01/23 01:51:02;;;;;;;1.08;0.52;;;5.40;99.90;;;;;;5079883;28;20039;-65
2021/01/23 01:53:28;;;;;;;3.50;0.90;;;5.40;99.90;;;;;;5071640;28;20028;-65
2021/01/23 01:55:54;;;;;;;1.65;0.85;;;5.40;99.90;;;;;;5079043;28;20038;-65
2021/01/23 01:58:20;;;;;;;1.92;0.60;;;5.50;99.90;;;;;;5072407;28;20150;-65
2021/01/23 02:00:45;;;;;;;1.02;0.50;;;5.50;99.90;;;;;;5077720;28;20161;-65
2021/01/23 02:03:30;;;;;;;3.67;1.50;;;5.60;99.90;;;;;;5069019;28;20029;-65
2021/01/23 02:06:36;;;;;;;1.63;0.80;;;5.60;99.90;;;;;;5078768;28;20024;-65
2021/01/23 02:09:09;;;;;;;3.60;1.08;;;5.50;99.90;;;;;;5070092;28;20020;-66
2021/01/23 02:12:06;;;;;;;0.65;0.40;;;5.50;99.90;;;;;;5080933;28;20032;-65
2021/01/23 02:14:55;;;;;;;1.92;0.52;;;5.60;99.90;;;;;;5071824;28;20028;-65
2021/01/23 02:17:27;;;;;;;2.38;0.70;;;5.60;99.90;;;;;;5079555;28;20488;-65
2021/01/23 02:20:06;;;;;;;1.17;0.50;;;5.70;99.90;;;;;;5085619;28;20043;-65
2021/01/23 02:23:02;;;;;;;5.25;0.70;;;5.80;99.90;;;;;;5078630;28;20074;-65
2021/01/23 02:25:37;;;;;;;1.60;0.70;;;5.60;99.90;;;;;;5074739;28;20085;-65
2021/01/23 02:28:17;;;;;;;1.63;0.70;;;5.80;99.90;;;;;;5074664;28;20036;-65
2021/01/23 02:31:06;;;;;;;1.08;0.50;;;5.70;99.90;;;;;;5077010;28;20051;-65
2021/01/23 02:33:33;;;;;;;1.70;0.68;;;5.90;99.90;;;;;;5070795;28;20012;-65
2021/01/23 02:36:02;;;;;;;1.35;0.70;;;5.70;99.90;;;;;;5078457;28;20119;-65
2021/01/23 02:38:32;;;;;;;2.03;0.65;;;5.80;99.90;;;;;;5070970;28;20024;-65
2021/01/23 02:41:01;;;;;;;1.38;0.70;;;5.70;99.90;;;;;;5079038;28;20028;-65
2021/01/23 02:43:27;;;;;;;1.55;0.60;;;5.80;99.90;;;;;;5071224;28;20024;-65
2021/01/23 02:45:52;;;;;;;4.22;0.90;;;5.80;99.90;;;;;;5077666;28;20097;-65
2021/01/23 02:48:18;;;;;;;2.42;1.20;;;5.70;99.90;;;;;;5072567;28;20107;-65
2021/01/23 02:50:46;;;;;;;4.05;1.15;;;5.70;99.90;;;;;;5077154;28;20603;-66
2021/01/23 02:53:24;;;;;;;5.60;1.23;;;5.60;99.90;;;;;;5073089;28;20033;-65
2021/01/23 02:55:56;;;;;;;1.52;0.80;;;5.80;99.90;;;;;;5077785;28;20029;-65
2021/01/23 02:58:25;;;;;;;2.92;0.70;;;5.90;99.90;;;;;;5071675;28;20017;-65
2021/01/23 03:00:52;;;;;;;3.33;0.60;;;5.80;99.90;;;;;;5077594;28;20572;-65
2021/01/23 03:03:19;;;;;;;2.80;0.80;;;5.80;99.90;;;;;;5072019;28;20021;-65
2021/01/23 03:05:46;;;;;;;1.55;0.60;;;5.80;99.90;;;;;;5076626;28;20423;-65
2021/01/23 03:08:13;;;;;;;0.98;0.47;;;5.70;99.90;;;;;;5073080;28;20025;-65
2021/01/23 03:10:41;;;;;;;4.03;1.10;;;5.90;99.90;;;;;;5076062;28;20053;-65
2021/01/23 03:13:08;;;;;;;1.65;0.80;;;5.70;99.90;;;;;;5073837;28;20025;-65
2021/01/23 03:15:34;;;;;;;1.17;0.57;;;5.70;99.90;;;;;;5075065;28;20032;-65
2021/01/23 03:18:01;;;;;;;1.70;0.63;;;5.80;99.90;;;;;;5081404;28;20028;-65
2021/01/23 03:20:27;;;;;;;2.30;0.60;;;5.80;99.90;;;;;;5082631;28;20142;-65
2021/01/23 03:22:53;;;;;;;2.15;0.63;;;5.80;99.90;;;;;;5075646;28;20067;-65
2021/01/23 03:25:19;;;;;;;1.35;0.45;;;5.70;99.90;;;;;;5072967;28;20583;-65
2021/01/23 03:27:45;;;;;;;1.83;0.80;;;5.70;99.90;;;;;;5076670;28;20030;-65
2021/01/23 03:30:11;;;;;;;3.63;0.93;;;5.80;99.90;;;;;;5071768;28;20393;-65
2021/01/23 03:32:37;;;;;;;2.53;0.60;;;5.70;99.90;;;;;;5077817;28;20477;-65
2021/01/23 03:35:04;;;;;;;4.13;0.80;;;5.70;99.90;;;;;;5071539;28;20021;-65
2021/01/23 03:37:30;;;;;;;2.33;1.33;;;5.80;99.90;;;;;;5077919;28;20032;-65
2021/01/23 03:39:55;;;;;;;1.73;0.85;;;5.80;99.90;;;;;;5071491;28;20111;-65
2021/01/23 03:42:21;;;;;;;3.08;0.70;;;5.80;99.90;;;;;;5078360;28;20382;-65
2021/01/23 03:44:47;;;;;;;2.22;1.30;;;5.90;99.90;;;;;;5071373;28;20047;-65
2021/01/23 03:47:12;;;;;;;3.60;1.75;;;5.70;99.90;;;;;;5079731;28;20079;-65
2021/01/23 03:49:39;;;;;;;2.15;0.60;;;5.90;99.90;;;;;;5074963;28;20602;-65
2021/01/23 03:52:05;;;;;;;2.30;0.50;;;5.80;99.90;;;;;;5081451;28;20108;-66
2021/01/23 03:54:30;;;;;;;2.92;0.60;;;5.80;99.90;;;;;;5074025;28;20120;-65
2021/01/23 03:56:56;;;;;;;1.05;0.45;;;5.70;99.90;;;;;;5082412;28;20039;-65
2021/01/23 03:59:22;;;;;;;2.33;0.77;;;5.70;99.90;;;;;;5072655;28;20095;-65
2021/01/23 04:01:47;;;;;;;1.38;0.80;;;5.80;99.90;;;;;;5081439;28;20024;-65
2021/01/23 04:04:13;;;;;;;0.73;0.60;;;5.80;99.90;;;;;;5091917;28;20746;-65
2021/01/23 04:06:39;;;;;;;1.63;0.70;;;5.70;99.90;;;;;;5083494;28;20021;-65
2021/01/23 04:09:04;;;;;;;1.55;0.47;;;5.80;99.90;;;;;;5072198;28;20518;-66
2021/01/23 04:11:30;;;;;;;0.90;0.50;;;5.90;99.90;;;;;;5083805;28;20681;-65
2021/01/23 04:13:56;;;;;;;0.80;0.30;;;5.80;99.90;;;;;;5072327;28;20024;-65
2021/01/23 04:16:21;;;;;;;1.15;0.40;;;5.90;99.90;;;;;;5083481;28;20033;-65
2021/01/23 04:18:47;;;;;;;1.15;0.22;;;5.90;99.90;;;;;;5084900;28;20085;-65
2021/01/23 04:21:12;;;;;;;1.60;0.50;;;5.90;99.90;;;;;;5085623;28;20052;-65
2021/01/23 04:23:39;;;;;;;1.33;0.47;;;5.90;99.90;;;;;;5072310;28;20025;-65
2021/01/23 04:26:05;;;;;;;2.53;0.45;;;5.90;99.90;;;;;;5081904;28;20030;-65
2021/01/23 04:28:31;;;;;;;0.80;0.50;;;5.90;99.90;;;;;;5095292;28;20023;-68
2021/01/23 04:30:57;;;;;;;0.55;0.40;;;6.00;99.90;;;;;;5099837;28;20077;-65
2021/01/23 04:33:22;;;;;;;2.30;0.40;;;5.70;99.90;;;;;;5091560;28;20504;-66
2021/01/23 04:35:48;;;;;;;1.05;0.40;;;5.70;99.90;;;;;;5089424;28;20411;-66
2021/01/23 04:38:14;;;;;;;3.85;0.60;;;5.70;99.90;;;;;;5091834;28;20507;-66
2021/01/23 04:40:39;;;;;;;3.50;1.45;;;5.70;99.90;;;;;;5089140;28;20562;-65
2021/01/23 04:43:05;;;;;;;0.90;0.55;;;5.90;99.90;;;;;;5091307;28;20081;-66
2021/01/23 04:45:31;;;;;;;1.13;0.50;;;5.90;99.90;;;;;;5088350;28;20211;-65
2021/01/23 04:47:56;;;;;;;1.35;0.80;;;5.80;99.90;;;;;;5091863;28;20024;-65
2021/01/23 04:50:22;;;;;;;2.40;0.70;;;5.70;99.90;;;;;;5083589;28;20028;-65
2021/01/23 04:52:48;;;;;;;1.48;0.50;;;5.70;99.90;;;;;;5087671;28;20476;-65
2021/01/23 04:55:14;;;;;;;1.77;0.43;;;5.70;99.90;;;;;;5088502;28;20028;-66
2021/01/23 04:57:43;;;;;;;1.20;0.30;;;5.60;99.90;;;;;;5090182;28;20028;-67
2021/01/23 05:00:10;;;;;;;0.68;0.30;;;5.60;99.90;;;;;;5085206;28;20388;-66
2021/01/23 05:02:36;;;;;;;0.77;0.40;;;5.60;99.90;;;;;;5090769;28;20185;-68
2021/01/23 05:05:04;;;;;;;0.40;0.22;;;5.60;99.90;;;;;;5089721;28;20111;-65
2021/01/23 05:07:29;;;;;;;0.77;0.30;;;5.50;99.90;;;;;;5090653;28;20546;-65
2021/01/23 05:09:57;;;;;;;0.70;0.40;;;5.60;99.90;;;;;;5087005;28;20016;-69
2021/01/23 05:12:52;;;;;;;0.63;0.40;;;5.50;99.90;;;;;;5088929;28;20114;-66
2021/01/23 05:15:25;;;;;;;1.50;0.75;;;5.40;99.90;;;;;;5084757;28;20070;-66
2021/01/23 05:18:05;;;;;;;1.42;0.40;;;5.50;99.90;;;;;;5090641;28;20031;-65
2021/01/23 05:20:35;;;;;;;1.17;0.40;;;5.50;99.90;;;;;;5084210;28;20385;-66
2021/01/23 05:23:27;;;;;;;1.40;0.30;;;5.40;99.90;;;;;;5076374;28;20035;-65
2021/01/23 05:25:56;;;;;;;0.90;0.22;;;5.20;99.90;;;;;;5079138;28;20682;-68
2021/01/23 05:28:34;;;;;;;0.77;0.40;;;5.20;99.90;;;;;;5073408;28;20021;-68
2021/01/23 05:31:01;;;;;;;0.95;0.40;;;5.20;99.90;;;;;;5079716;28;20499;-68
2021/01/23 05:33:30;;;;;;;1.65;0.35;;;5.20;99.90;;;;;;5072620;28;20585;-65
2021/01/23 05:35:58;;;;;;;2.25;0.43;;;5.20;99.90;;;;;;5083343;28;20031;-66
2021/01/23 05:38:32;;;;;;;2.03;0.30;;;5.20;99.90;;;;;;5072830;28;20028;-66
2021/01/23 05:41:03;;;;;;;1.15;0.60;;;5.10;99.90;;;;;;5079407;28;20089;-68
2021/01/23 05:43:31;;;;;;;1.05;0.50;;;5.20;99.90;;;;;;5072279;28;20419;-69
2021/01/23 05:45:58;;;;;;;1.05;0.30;;;5.00;99.90;;;;;;5079004;28;20048;-66
2021/01/23 05:48:23;;;;;;;4.38;0.50;;;5.10;99.90;;;;;;5073006;28;20021;-65
2021/01/23 05:50:51;;;;;;;1.83;0.47;;;5.10;99.90;;;;;;5077466;28;20637;-68
2021/01/23 05:53:17;;;;;;;1.02;0.60;;;5.10;99.90;;;;;;5088084;28;20468;-66
2021/01/23 05:55:42;;;;;;;1.25;0.60;;;5.20;99.90;;;;;;5083993;28;20043;-65
2021/01/23 05:58:09;;;;;;;1.05;0.43;;;5.10;99.90;;;;;;5074591;28;20047;-65
2021/01/23 06:00:35;;;;;;;4.55;0.60;;;5.00;99.90;;;;;;5075693;28;20051;-66
2021/01/23 06:03:01;;;;;;;2.42;1.35;;;4.90;99.90;;;;;;5075776;28;20016;-66
2021/01/23 06:05:27;;;;;;;1.50;0.60;;;5.00;99.90;;;;;;5074318;28;20035;-65
2021/01/23 06:07:53;;;;;;;2.70;0.85;;;5.10;99.90;;;;;;5076988;28;20039;-65
2021/01/23 06:10:22;;;;;;;1.15;0.98;;;5.10;99.90;;;;;;5072990;28;20492;-65
2021/01/23 06:12:51;;;;;;;2.05;1.02;;;4.90;99.90;;;;;;5078152;28;20031;-66
2021/01/23 06:15:32;;;;;;;2.78;1.30;;;4.90;99.90;;;;;;5072891;28;20029;-66
2021/01/23 06:17:59;;;;;;;1.30;0.90;;;4.80;99.90;;;;;;5082443;28;20426;-66
2021/01/23 06:20:39;;;;;;;2.13;0.98;;;4.80;99.90;;;;;;5083143;28;20044;-66
2021/01/23 06:23:06;;;;;;;1.55;1.00;;;4.80;99.90;;;;;;5075222;28;20020;-65
2021/01/23 06:25:50;;;;;;;1.00;0.90;;;4.80;99.90;;;;;;5079650;28;20464;-65
2021/01/23 06:28:21;;;;;;;1.27;0.93;;;4.80;99.90;;;;;;5087634;28;20024;-65
2021/01/23 06:30:51;;;;;;;1.17;0.90;;;4.60;99.90;;;;;;5087777;28;20149;-65
2021/01/23 06:33:23;;;;;;;1.63;0.80;;;4.50;99.90;;;;;;5089409;28;20023;-64
2021/01/23 06:36:03;;;;;;;1.55;1.00;;;4.50;99.90;;;;;;5084355;28;20035;-65
2021/01/23 06:38:30;;;;;;;2.50;1.02;;;4.40;99.90;;;;;;5069243;28;20400;-65
2021/01/23 06:40:56;;;;;;;0.98;0.70;;;4.40;99.90;;;;;;5087001;28;20049;-65
2021/01/23 06:43:22;;;;;;;1.23;1.13;;;4.40;99.90;;;;;;5089287;28;20016;-66
2021/01/23 06:45:47;;;;;;;4.53;1.30;;;4.50;99.90;;;;;;5083195;28;20516;-65
2021/01/23 06:48:13;;;;;;;1.63;0.95;;;4.50;99.90;;;;;;5073672;28;20027;-65
2021/01/23 06:50:43;;;;;;;1.27;0.90;;;4.60;99.90;;;;;;5075470;28;20030;-64
2021/01/23 06:53:17;;;;;;;3.75;1.10;;;5.70;99.90;;;;;;5074588;28;20476;-64
2021/01/23 06:55:49;;;;;;;1.17;1.08;;;5.20;99.90;;;;;;5076458;28;20478;-65
2021/01/23 06:58:26;;;;;;;2.47;1.00;;;5.00;99.90;;;;;;5073507;28;20017;-63
2021/01/23 07:01:02;;;;;;;1.42;1.33;;;4.80;99.90;;;;;;5077550;28;20043;-64
2021/01/23 07:03:29;;;;;;;4.18;2.10;;;4.60;99.90;;;;;;5088963;28;20021;-63
2021/01/23 07:06:02;;;;;;;2.00;1.80;;;4.70;99.90;;;;;;5068461;28;20407;-64
2021/01/23 07:08:32;;;;;;;2.35;1.80;;;4.70;99.90;;;;;;5089082;28;20066;-63
2021/01/23 07:11:03;;;;;;;2.47;1.55;;;4.50;99.90;;;;;;5084194;28;20024;-63
2021/01/23 07:13:29;;;;;;;2.38;1.65;;;4.60;99.90;;;;;;5097129;28;20121;-63
2021/01/23 07:15:54;;;;;;;2.58;1.73;;;4.50;99.90;;;;;;5086791;28;20107;-63
2021/01/23 07:18:20;;;;;;;2.58;2.33;;;4.50;99.90;;;;;;5088711;28;20062;-64
2021/01/23 07:20:45;;;;;;;3.72;2.60;;;4.30;99.90;;;;;;5086833;28;20026;-64
2021/01/23 07:23:14;;;;;;;4.85;2.40;;;4.50;99.90;;;;;;5092575;28;20387;-64
2021/01/23 07:25:40;;;;;;;6.53;1.90;;;4.40;99.90;;;;;;5090680;28;20020;-63
2021/01/23 07:28:05;;;;;;;3.30;2.00;;;4.30;99.90;;;;;;5092911;28;20028;-64
2021/01/23 07:30:31;;;;;;;4.63;2.78;;;4.40;99.90;;;;;;5090619;28;20036;-63
2021/01/23 07:32:57;;;;;;;4.00;2.70;;;4.50;99.90;;;;;;5092486;28;20111;-63
2021/01/23 07:35:22;;;;;;;3.50;1.88;;;4.40;99.90;;;;;;5090485;28;20028;-64
2021/01/23 07:37:55;;;;;;;3.47;1.67;;;4.40;99.90;;;;;;5092356;28;20059;-64
2021/01/23 07:40:27;;;;;;;3.35;1.90;;;4.40;99.90;;;;;;5085736;28;20074;-63
2021/01/23 07:42:56;;;;;;;2.17;1.60;;;4.50;99.90;;;;;;5078092;28;20031;-64
2021/01/23 07:45:22;;;;;;;2.67;1.60;;;4.60;99.90;;;;;;5075546;28;20048;-64
2021/01/23 07:48:01;;;;;;;2.47;1.67;;;4.40;99.90;;;;;;5080552;28;20033;-60
2021/01/23 07:50:40;;;;;;;4.18;1.70;;;4.60;99.90;;;;;;5076653;28;20082;-59
2021/01/23 07:53:21;;;;;;;2.42;1.85;;;4.70;99.90;;;;;;5077915;28;20024;-60
2021/01/23 07:55:51;;;;;;;2.00;1.77;;;4.70;99.90;;;;;;5079735;28;20065;-61
2021/01/23 07:58:18;;;;;;;2.55;2.15;;;4.50;99.90;;;;;;5079249;28;20391;-60
2021/01/23 08:00:44;;;;;;;3.08;2.03;;;4.70;99.90;;;;;;5085892;28;20032;-61
2021/01/23 08:03:11;;;;;;;4.05;2.33;;;4.80;99.90;;;;;;5077203;28;20047;-62
2021/01/23 08:05:45;;;;;;;2.65;2.13;;;4.70;99.90;;;;;;5077801;28;20056;-63
2021/01/23 08:08:12;;;;;;;4.95;4.32;;;4.70;99.90;;;;;;5077101;28;20082;-66
2021/01/23 08:10:39;;;;;;;4.65;3.70;;;4.70;99.90;;;;;;5078000;28;20027;-62
2021/01/23 08:13:06;;;;;;;3.35;2.85;;;4.70;99.90;;;;;;5077836;28;20033;-61
2021/01/23 08:15:35;;;;;;;4.15;2.88;;;4.70;99.90;;;;;;5076884;28;20052;-62
2021/01/23 08:18:02;;;;;;;3.65;3.35;;;4.80;99.90;;;;;;5085070;28;20024;-62
2021/01/23 08:20:36;;;;;;;3.60;3.30;;;4.80;99.90;;;;;;5085557;28;20055;-62
2021/01/23 08:23:12;;;;;;;3.13;2.78;;;5.00;99.90;;;;;;5078090;28;20052;-62
2021/01/23 08:25:42;;;;;;;5.45;2.70;;;4.90;99.90;;;;;;5077729;28;20036;-61
2021/01/23 08:28:08;;;;;;;2.72;2.35;;;5.10;99.90;;;;;;5077129;28;20056;-61
2021/01/23 08:30:34;;;;;;;2.42;2.22;;;5.20;99.90;;;;;;5076937;28;20522;-62
2021/01/23 08:33:05;;;;;;;2.70;2.50;;;5.20;99.90;;;;;;5078094;28;20020;-62
2021/01/23 08:35:34;;;;;;;4.38;2.92;;;5.30;99.90;;;;;;5076165;28;20074;-61
2021/01/23 08:37:59;;;;;;;5.57;3.92;;;5.20;99.90;;;;;;5078234;28;20476;-61
2021/01/23 08:40:25;;;;;;;3.42;2.80;;;5.10;99.90;;;;;;5075307;28;20033;-61
2021/01/23 08:42:51;;;;;;;4.70;1.92;;;5.20;99.90;;;;;;5079222;28;20511;-61
2021/01/23 08:45:19;;;;;;;3.65;1.80;;;5.30;99.90;;;;;;5074076;28;20195;-61
2021/01/23 08:47:45;;;;;;;3.08;2.50;;;5.40;99.90;;;;;;5080206;28;20174;-61
2021/01/23 08:50:11;;;;;;;2.35;2.08;;;5.30;99.90;;;;;;5079088;28;20066;-61
2021/01/23 08:52:37;;;;;;;2.60;2.03;;;5.30;99.90;;;;;;5080266;28;20089;-61
2021/01/23 08:55:05;;;;;;;5.82;2.38;;;5.40;99.90;;;;;;5073956;28;20465;-61
2021/01/23 08:57:30;;;;;;;3.38;2.08;;;5.40;99.90;;;;;;5080265;28;20077;-61
2021/01/23 08:59:56;;;;;;;2.83;1.85;;;5.50;99.90;;;;;;5055545;28;20122;-62
2021/01/23 09:02:22;;;;;;;2.92;2.58;;;5.50;99.90;;;;;;5088271;28;20023;-61
2021/01/23 09:04:48;;;;;;;3.90;2.33;;;5.70;99.90;;;;;;5091094;28;20020;-61
2021/01/23 09:07:13;;;;;;;7.45;2.45;;;5.60;99.90;;;;;;5085436;28;20082;-62
2021/01/23 09:09:39;;;;;;;3.10;2.45;;;5.80;99.90;;;;;;5072034;28;20078;-61
2021/01/23 09:12:05;;;;;;;3.00;2.58;;;5.80;99.90;;;;;;5080541;28;20047;-63
2021/01/23 09:14:31;;;;;;;4.88;2.70;;;5.80;99.90;;;;;;5071736;28;20100;-61
2021/01/23 09:16:57;;;;;;;5.43;2.42;;;5.90;99.90;;;;;;5081421;28;20095;-60
2021/01/23 09:19:22;;;;;;;2.40;2.17;;;5.90;99.90;;;;;;5087850;28;20067;-61
2021/01/23 09:21:48;;;;;;;2.28;2.03;;;5.90;99.90;;;;;;5082351;28;20101;-64
2021/01/23 09:24:14;;;;;;;3.67;2.00;;;5.90;99.90;;;;;;5096467;28;20012;-62
2021/01/23 09:26:41;;;;;;;2.72;2.05;;;6.20;99.90;;;;;;5089437;28;20396;-64
2021/01/23 09:29:07;;;;;;;5.40;2.63;;;6.20;99.90;;;;;;5072320;28;20402;-64
2021/01/23 09:31:33;;;;;;;4.68;2.75;;;6.40;99.90;;;;;;5088152;28;20103;-66
2021/01/23 09:33:58;;;;;;;4.28;2.95;;;6.60;99.90;;;;;;5090339;28;20500;-60
2021/01/23 09:36:25;;;;;;;3.63;2.50;;;6.60;99.90;;;;;;5083798;28;20024;-63
2021/01/23 09:38:51;;;;;;;3.03;2.72;;;6.60;99.90;;;;;;5080974;28;20035;-61
2021/01/23 09:41:17;;;;;;;4.78;3.08;;;6.80;99.90;;;;;;5087435;28;20035;-61
2021/01/23 09:43:43;;;;;;;3.50;3.10;;;7.20;99.90;;;;;;5088367;28;20020;-61
2021/01/23 09:46:09;;;;;;;4.88;2.45;;;7.30;99.90;;;;;;5087159;28;20550;-60
2021/01/23 09:48:34;;;;;;;2.10;1.90;;;7.60;99.90;;;;;;5085406;28;20035;-59
2021/01/23 09:51:00;;;;;;;2.70;2.00;;;7.60;99.90;;;;;;5083740;28;20121;-63
2021/01/23 09:53:26;;;;;;;3.15;2.28;;;7.90;99.90;;;;;;5089674;28;20019;-66
2021/01/23 09:55:52;;;;;;;3.17;1.83;;;8.30;99.90;;;;;;5090921;28;20384;-66
2021/01/23 09:58:17;;;;;;;3.47;2.13;;;8.20;99.90;;;;;;5089121;28;20535;-59
2021/01/23 10:00:43;;;;;;;3.42;1.95;;;8.40;99.90;;;;;;5083710;28;20130;-59
2021/01/23 10:03:09;;;;;;;2.38;1.85;;;8.30;99.90;;;;;;5076248;28;20435;-59
2021/01/23 10:05:35;;;;;;;3.00;2.13;;;8.60;99.90;;;;;;5086781;28;20020;-58
2021/01/23 10:08:01;;;;;;;3.40;3.10;;;8.70;99.90;;;;;;5088839;28;20028;-59
2021/01/23 10:10:28;;;;;;;5.22;4.72;;;8.70;99.90;;;;;;5083166;28;20496;-65
2021/01/23 10:12:53;;;;;;;4.90;4.38;;;8.80;99.90;;;;;;5089789;28;20046;-60
2021/01/23 10:15:19;;;;;;;4.82;4.20;;;8.80;99.90;;;;;;5083585;28;20540;-59
2021/01/23 10:17:45;;;;;;;6.25;4.40;;;8.90;99.90;;;;;;5083140;28;20391;-59
2021/01/23 10:20:11;;;;;;;2.22;1.85;;;9.10;99.90;;;;;;5084438;28;20075;-59
2021/01/23 10:22:37;;;;;;;3.90;1.40;;;9.20;99.90;;;;;;5083431;28;20615;-60
2021/01/23 10:25:04;;;;;;;4.18;2.03;;;9.80;99.90;;;;;;5085975;28;20024;-59
2021/01/23 10:27:30;;;;;;;4.25;1.75;;;9.40;99.90;;;;;;5078712;28;20029;-60
2021/01/23 10:29:55;;;;;;;3.47;1.75;;;9.20;99.90;;;;;;5072271;28;20028;-59
2021/01/23 10:32:21;;;;;;;1.45;1.20;;;9.30;99.90;;;;;;5078538;28;20032;-59
2021/01/23 10:34:47;;;;;;;1.20;0.68;;;9.50;99.90;;;;;;5072154;28;20024;-59
2021/01/23 10:37:12;;;;;;;2.72;1.48;;;9.90;99.90;;;;;;5078579;28;20025;-59
2021/01/23 10:39:38;;;;;;;2.60;1.73;;;10.00;99.90;;;;;;5071190;28;20090;-59
2021/01/23 10:42:04;;;;;;;2.22;1.40;;;10.10;99.90;;;;;;5079154;28;20028;-59
2021/01/23 10:44:30;;;;;;;1.88;1.48;;;10.20;99.90;;;;;;5069923;28;20036;-59
2021/01/23 10:46:56;;;;;;;1.95;1.20;;;10.30;99.90;;;;;;5078622;28;20043;-59
2021/01/23 10:49:21;;;;;;;1.58;1.05;;;10.30;99.90;;;;;;5089071;28;20032;-59
2021/01/23 10:51:48;;;;;;;3.00;1.90;;;10.40;99.90;;;;;;5080380;28;20028;-59
2021/01/23 10:54:14;;;;;;;1.70;1.27;;;10.50;99.90;;;;;;5069647;28;20465;-60
2021/01/23 10:56:39;;;;;;;1.05;0.80;;;10.40;99.90;;;;;;5082073;28;20476;-59
2021/01/23 10:59:05;;;;;;;1.20;0.60;;;10.50;99.90;;;;;;5073960;28;20047;-59
2021/01/23 11:01:31;;;;;;;1.35;0.93;;;10.60;99.90;;;;;;5084928;28;20020;-59
2021/01/23 11:03:57;;;;;;;1.60;0.77;;;10.60;99.90;;;;;;5073504;28;20514;-59
2021/01/23 11:06:23;;;;;;;1.50;0.60;;;10.60;99.90;;;;;;5084731;28;20016;-59
2021/01/23 11:08:49;;;;;;;0.93;0.70;;;10.70;99.90;;;;;;5073569;28;20427;-60
2021/01/23 11:11:15;;;;;;;1.05;0.65;;;10.70;99.90;;;;;;5083528;28;20085;-60
2021/01/23 11:13:42;;;;;;;1.05;0.60;;;10.70;99.90;;;;;;5074338;28;20059;-59
2021/01/23 11:16:09;;;;;;;2.17;0.60;;;10.80;99.90;;;;;;5082421;28;20116;-59
2021/01/23 11:18:35;;;;;;;0.90;0.80;;;10.60;99.90;;;;;;5086640;28;20313;-59
2021/01/23 11:21:02;;;;;;;1.55;0.90;;;10.60;99.90;;;;;;5086633;28;20028;-59
2021/01/23 11:23:27;;;;;;;1.33;1.00;;;10.60;99.90;;;;;;5076027;28;20039;-59
2021/01/23 11:25:53;;;;;;;1.25;0.80;;;10.60;99.90;;;;;;5080520;28;20032;-59
2021/01/23 11:28:19;;;;;;;1.77;0.80;;;10.70;99.90;;;;;;5077122;28;20463;-59
2021/01/23 11:30:44;;;;;;;0.98;0.50;;;10.70;99.90;;;;;;5078895;28;20305;-59
2021/01/23 11:33:10;;;;;;;1.52;0.70;;;10.80;99.90;;;;;;5078269;28;20115;-65
2021/01/23 11:35:36;;;;;;;1.83;0.65;;;10.80;99.90;;;;;;5077413;28;20024;-64
2021/01/23 11:38:02;;;;;;;2.13;0.80;;;10.80;99.90;;;;;;5079578;28;20033;-65
2021/01/23 11:40:29;;;;;;;1.17;0.90;;;10.80;99.90;;;;;;5076519;28;20132;-64
2021/01/23 11:42:55;;;;;;;1.55;0.82;;;10.90;99.90;;;;;;5080229;28;20497;-64
2021/01/23 11:45:21;;;;;;;2.13;0.98;;;10.90;99.90;;;;;;5079203;28;20044;-65
2021/01/23 11:47:48;;;;;;;2.08;1.20;;;10.90;99.90;;;;;;5084357;28;20450;-65
2021/01/23 11:50:14;;;;;;;1.55;0.95;;;10.90;99.90;;;;;;5087249;28;20017;-65
2021/01/23 11:52:40;;;;;;;4.32;1.30;;;10.90;99.90;;;;;;5081442;28;20028;-66
2021/01/23 11:55:06;;;;;;;2.78;1.48;;;10.90;99.90;;;;;;5075188;28;20091;-65
2021/01/23 11:57:33;;;;;;;6.03;1.20;;;10.90;99.90;;;;;;5081582;28;20510;-65
2021/01/23 11:59:58;;;;;;;2.47;0.65;;;10.80;99.90;;;;;;5075033;28;20032;-65
2021/01/23 12:02:24;;;;;;;3.00;0.70;;;10.80;99.90;;;;;;5081194;28;20416;-65
2021/01/23 12:04:50;;;;;;;2.28;0.70;;;10.90;99.90;;;;;;5074796;28;20053;-65
2021/01/23 12:07:16;;;;;;;2.08;0.73;;;10.80;99.90;;;;;;5080473;28;20059;-64
2021/01/23 12:09:43;;;;;;;1.92;0.60;;;10.80;99.90;;;;;;5074989;28;20020;-66
2021/01/23 12:12:09;;;;;;;1.58;0.50;;;11.00;99.90;;;;;;5089974;28;20112;-65
2021/01/23 12:14:35;;;;;;;1.50;0.52;;;11.00;99.90;;;;;;5089051;28;20114;-65
2021/01/23 12:17:00;;;;;;;1.00;0.52;;;11.00;99.90;;;;;;5093027;28;20024;-66
2021/01/23 12:19:26;;;;;;;3.35;0.63;;;11.10;99.90;;;;;;5090417;28;20036;-65
2021/01/23 12:21:52;;;;;;;1.40;0.60;;;11.10;99.90;;;;;;5082154;28;20052;-65
2021/01/23 12:24:18;;;;;;;1.55;0.70;;;11.00;99.90;;;;;;5082849;28;20052;-64
2021/01/23 12:26:43;;;;;;;2.05;0.60;;;11.10;99.90;;;;;;5089414;28;20120;-69
2021/01/23 12:29:09;;;;;;;1.60;0.60;;;11.00;99.90;;;;;;5091859;28;20024;-65
2021/01/23 12:31:35;;;;;;;3.15;0.75;;;11.10;99.90;;;;;;5084152;28;20028;-65
2021/01/23 12:34:00;;;;;;;1.73;0.73;;;11.20;99.90;;;;;;5071773;28;20070;-65
2021/01/23 12:36:27;;;;;;;3.45;0.90;;;11.20;99.90;;;;;;5083160;28;20082;-65
2021/01/23 12:38:52;;;;;;;1.27;0.70;;;11.30;99.90;;;;;;5072116;28;20032;-66
2021/01/23 12:41:18;;;;;;;1.23;0.75;;;11.10;99.90;;;;;;5076614;28;20477;-65
2021/01/23 12:43:44;;;;;;;3.22;0.88;;;11.00;99.90;;;;;;5084308;28;20024;-70
2021/01/23 12:46:09;;;;;;;1.20;0.70;;;11.00;99.90;;;;;;5082326;28;20044;-65
2021/01/23 12:48:35;;;;;;;4.28;0.90;;;11.00;99.90;;;;;;5089292;28;20028;-65
2021/01/23 12:51:00;;;;;;;2.63;1.10;;;10.80;99.90;;;;;;5070960;28;20039;-65
2021/01/23 12:53:26;;;;;;;1.45;0.98;;;10.90;99.90;;;;;;5094031;28;20078;-70
2021/01/23 12:55:52;;;;;;;3.53;1.25;;;10.70;99.90;;;;;;5084992;28;20064;-65
2021/01/23 12:58:22;;;;;;;1.45;0.82;;;10.60;99.90;;;;;;5075392;28;20044;-65